Flight Track Log - Related Links

Times and Time Zones

All times are in EST time to prevent confusion due to time zone crossing. See the DAL6197 flight status page for this flight to view local times or setup timezone preferences in your user account.

Time Position Orientation Groundspeed Altitude Reporting Facility
EST Latitude Longitude Course Direction KTS MPH feet Rate Location/Type
Wed 06:14:55 AM 42.8389 -85.5025 119° Southeast 177 204 2,700  Level Chicago Center
Wed 06:15:55 AM 42.7847 -85.4583 149° Southeast 230 265 5,300 3,124 Climbing Chicago Center
Wed 06:16:56 AM 42.7497 -85.3606 116° Southeast 281 323 9,000 2,876 Climbing Chicago Center
Wed 06:17:56 AM 42.7128 -85.2547 115° Southeast 304 350 11,100 2,083 Climbing Chicago Center
Wed 06:18:57 AM 42.6675 -85.1328 117° Southeast 358 412 13,200 2,281 Climbing Chicago Center
Wed 06:19:57 AM 42.6211 -85.0008 116° Southeast 382 440 15,700 2,250 Climbing Chicago Center
Wed 06:20:00 AM 42.7657 -84.6315 119° Southeast  Level Estimated
Wed 06:20:57 AM 42.5722 -84.8661 116° Southeast 396 456 17,700  Level Chicago Center
Wed 06:21:58 AM 42.5231 -84.7286 116° Southeast 404 465 20,000 2,231 Climbing Chicago Center
Wed 06:22:58 AM 42.4714 -84.5886 117° Southeast 414 476 22,200 2,182 Climbing Chicago Center
Wed 06:23:59 AM 42.4194 -84.4500 117° Southeast 414 476 24,400 2,033 Climbing Chicago Center
Wed 06:24:59 AM 42.3861 -84.3022 107° East 405 466 26,300 1,983 Climbing Chicago Center
Wed 06:26:00 AM 42.3575 -84.1233 102° East 408 470 28,400 1,785 Climbing Chicago Center
Wed 06:27:00 AM 42.3342 -83.9714 102° East 411 473 29,900 1,300 Climbing Chicago Center
Wed 06:28:00 AM 42.3089 -83.8197 103° East 414 476 31,000 992 Climbing Chicago Center
Wed 06:29:01 AM 42.2836 -83.6614 102° East 426 490 31,900 831 Climbing Chicago Center
Wed 06:30:10 AM 42.2511 -83.4914 104° East 435 501 32,800 877 Climbing Cleveland Center
Wed 06:31:11 AM 42.2244 -83.3275 102° East 442 509 33,800 976 Climbing Cleveland Center
Wed 06:32:13 AM 42.1917 -83.1469 104° East 443 510 34,800 927 Climbing Cleveland Center
Wed 06:33:14 AM 42.1642 -82.9822 103° East 449 517 35,700 885 Climbing Cleveland Center
Wed 06:34:15 AM 42.1353 -82.8181 103° East 451 519 36,600 639 Climbing Cleveland Center
Wed 06:35:16 AM 42.1050 -82.6528 104° East 455 524 37,000 197 Climbing Cleveland Center
Wed 06:36:17 AM 42.0783 -82.4864 102° East 455 524 37,000  Level Cleveland Center
Wed 06:37:18 AM 42.0478 -82.3250 104° East 449 517 37,000  Level Cleveland Center
Wed 06:38:19 AM 42.0197 -82.1636 103° East 446 513 37,000  Level Cleveland Center
Wed 06:39:21 AM 41.9853 -81.9786 104° East 443 510 37,000  Level Cleveland Center
Wed 06:40:22 AM 41.9553 -81.8153 104° East 444 511 37,000  Level Cleveland Center
Wed 06:41:23 AM 41.9250 -81.6503 104° East 448 516 37,000  Level Cleveland Center
Wed 06:42:24 AM 41.8939 -81.4844 104° East 452 520 37,000  Level Cleveland Center
Wed 06:43:26 AM 41.8639 -81.3189 104° East 451 519 37,000  Level Cleveland Center
Wed 06:44:27 AM 41.8317 -81.1511 104° East 457 526 37,000  Level Cleveland Center
Wed 06:45:28 AM 41.8006 -80.9875 104° East 450 518 37,000  Level Cleveland Center
Wed 06:46:30 AM 41.7683 -80.8189 104° East 457 526 37,000  Level Cleveland Center
Wed 06:47:31 AM 41.7358 -80.6511 104° East 460 529 37,000  Level Cleveland Center
Wed 06:48:33 AM 41.7028 -80.4842 105° East 460 529 37,000  Level Cleveland Center
Wed 06:49:34 AM 41.6697 -80.3147 105° East 463 533 37,000  Level Cleveland Center
Wed 06:50:36 AM 41.6358 -80.1439 105° East 462 532 37,000  Level Cleveland Center
Wed 06:51:37 AM 41.6028 -79.9806 105° East 461 531 37,000  Level Cleveland Center
Wed 06:52:39 AM 41.5700 -79.8142 105° East 466 536 37,000  Level Cleveland Center
Wed 06:53:40 AM 41.5347 -79.6467 106° East 468 539 37,000  Level Cleveland Center
Wed 06:54:42 AM 41.5006 -79.4772 105° East 473 544 37,000  Level Cleveland Center
Wed 06:55:43 AM 41.4581 -79.2742 106° East 475 547 37,000  Level Cleveland Center
Wed 06:56:44 AM 41.4225 -79.1061 106° East 473 544 37,000  Level Cleveland Center
Wed 06:57:46 AM 41.3867 -78.9350 106° East 478 550 37,000  Level Cleveland Center
Wed 06:58:47 AM 41.3494 -78.7583 106° East 478 550 37,000 -585 Level Cleveland Center
Wed 06:59:49 AM 41.3119 -78.5889 106° East 478 550 35,800 -1,220 Descending Cleveland Center
Wed 07:00:50 AM 41.2753 -78.4189 106° East 478 550 34,500 -1,268 Descending Cleveland Center
Wed 07:01:52 AM 41.2383 -78.2494 106° East 477 549 33,200 -789 Descending Cleveland Center
Wed 07:02:44 AM 41.2086 -78.0828 103° East 480 552 33,000 -107 Descending New York Center
Wed 07:03:44 AM 41.1864 -77.9342 101° East 467 537 33,000  Level New York Center
Wed 07:04:44 AM 41.1678 -77.7611 98° East 462 532 33,000  Level New York Center
Wed 07:05:44 AM 41.1442 -77.5906 100° East 462 532 33,000 -250 Level New York Center
Wed 07:06:44 AM 41.1228 -77.4175 99° East 473 544 32,500 -900 Descending New York Center
Wed 07:07:44 AM 41.0978 -77.2306 100° East 473 544 31,200 -1,250 Descending New York Center
Wed 07:08:44 AM 41.0736 -77.0603 101° East 473 544 30,000 -1,650 Descending New York Center
Wed 07:09:44 AM 41.0511 -76.8903 100° East 473 544 27,900 -2,450 Descending New York Center
Wed 07:10:44 AM 41.0281 -76.7314 101° East 460 529 25,100 -2,800 Descending New York Center
Wed 07:11:44 AM 41.0039 -76.5892 103° East 446 513 22,300 -2,800 Descending New York Center
Wed 07:12:44 AM 40.9672 -76.4403 108° East 434 499 19,500 -2,150 Descending New York Center
Wed 07:13:44 AM 40.9308 -76.2833 107° East 412 474 18,000 -750 Descending New York Center
Wed 07:14:44 AM 40.8981 -76.1381 107° East 407 468 18,000 -50 Level New York Center
Wed 07:15:44 AM 40.8661 -76.0119 108° East 407 468 17,900 -1,100 Descending New York Center
Wed 07:16:44 AM 40.8272 -75.8556 108° East 407 468 15,800 -2,000 Descending New York Center
Wed 07:17:44 AM 40.7989 -75.7356 107° East 391 450 13,900 -1,600 Descending New York Center
Wed 07:18:44 AM 40.7583 -75.6064 112° Southeast 383 441 12,600 -1,250 Descending New York Center
Wed 07:19:44 AM 40.7142 -75.4608 112° Southeast 383 441 11,400 -1,150 Descending New York Center
Wed 07:20:44 AM 40.6714 -75.3322 114° Southeast 383 441 10,300 -700 Descending New York Center
Wed 07:21:44 AM 40.6361 -75.2178 112° Southeast 383 441 10,000 -150 Descending New York Center
Wed 07:22:44 AM 40.5911 -75.0836 114° Southeast 370 426 10,000  Level New York Center
Wed 07:23:44 AM 40.5539 -74.9611 112° Southeast 364 419 10,000  Level New York Center
Wed 07:24:44 AM 40.5203 -74.8469 111° Southeast 359 413 10,000  Level New York Center
Wed 07:25:44 AM 40.4772 -74.7108 113° Southeast 364 419 10,000  Level New York Center
Wed 07:26:44 AM 40.4394 -74.5858 112° Southeast 364 419 10,000  Level New York Center
Wed 07:27:44 AM 40.4519 -74.4583 83° East 344 396 10,000  Level New York Center
Wed 07:28:44 AM 40.4803 -74.3508 71° East 334 384 10,000 -500 Level New York Center
Wed 07:29:44 AM 40.5106 -74.2433 70° East 296 341 9,000 -1,200 Descending New York Center
Wed 07:30:44 AM 40.5319 -74.1569 72° East 275 316 7,600 -1,150 Descending New York Center
Wed 07:31:44 AM 40.5614 -74.0683 66° East 244 281 6,700 -1,200 Descending New York Center
Wed 07:32:44 AM 40.6000 -74.0264 40° Northeast 206 237 5,200 -1,350 Descending New York Center
Wed 07:33:44 AM 40.6511 -73.9850 32° Northeast 194 223 4,000 -950 Descending New York Center
Wed 07:34:44 AM 40.6875 -73.9511 35° Northeast 188 216 3,300 -1,000 Descending New York Center
Wed 07:35:44 AM 40.7222 -73.8981 49° Northeast 172 198 2,000 -1,109 Descending New York Center
Wed 07:36:43 AM 40.7333 -73.8500 73° East 143 165 1,100 -857 Descending New York TRACON
Wed 07:37:43 AM 40.7667 -73.8500 360° North 121 139 300 -800 Descending New York TRACON
Wed 07:39:00 AM 40.7667 -73.8667 30° Northeast  Level FlightAware Approximate
Wed 07:46:00 AM 40.7772 -73.8726 30° Northeast  Level Estimated
Wed 07:47:00 AM 40.7772 -73.8726 30° Northeast  Level Estimated

Login

Don't have an account? Register now (free) for customized features, flight alerts, and more!